sensor_id;sensor_type;location;lat;lon;timestamp;pressure;altitude;pressure_sealevel;temperature;humidity
14393;BME280;7281;42.678;23.372;2022-09-28T00:03:36;94096.72;;;17.56;61.51
14393;BME280;7281;42.678;23.372;2022-09-28T00:06:06;94097.78;;;18.22;59.72
14393;BME280;7281;42.678;23.372;2022-09-28T00:08:34;94105.91;;;17.59;61.22
14393;BME280;7281;42.678;23.372;2022-09-28T00:11:03;94098.47;;;17.81;60.88
14393;BME280;7281;42.678;23.372;2022-09-28T00:13:30;94082.53;;;18.19;59.56
14393;BME280;7281;42.678;23.372;2022-09-28T00:16:03;94090.03;;;18.38;58.64
14393;BME280;7281;42.678;23.372;2022-09-28T00:18:31;94093.94;;;18.40;58.91
14393;BME280;7281;42.678;23.372;2022-09-28T00:21:19;94087.56;;;18.33;59.31
14393;BME280;7281;42.678;23.372;2022-09-28T00:23:52;94088.13;;;18.47;58.52
14393;BME280;7281;42.678;23.372;2022-09-28T00:26:40;94085.94;;;18.69;57.61
14393;BME280;7281;42.678;23.372;2022-09-28T00:29:25;94094.03;;;17.65;60.38
14393;BME280;7281;42.678;23.372;2022-09-28T00:31:54;94081.50;;;18.32;59.09
14393;BME280;7281;42.678;23.372;2022-09-28T00:34:25;94079.66;;;18.74;57.51
14393;BME280;7281;42.678;23.372;2022-09-28T00:36:52;94081.47;;;18.61;57.58
14393;BME280;7281;42.678;23.372;2022-09-28T00:39:19;94091.00;;;18.62;57.77
14393;BME280;7281;42.678;23.372;2022-09-28T00:41:47;94086.44;;;18.83;56.71
14393;BME280;7281;42.678;23.372;2022-09-28T00:47:20;94082.38;;;18.98;56.58
14393;BME280;7281;42.678;23.372;2022-09-28T00:50:00;94081.38;;;18.90;56.97
14393;BME280;7281;42.678;23.372;2022-09-28T00:52:35;94075.66;;;19.00;56.41
14393;BME280;7281;42.678;23.372;2022-09-28T00:55:10;94080.66;;;18.81;57.63
14393;BME280;7281;42.678;23.372;2022-09-28T00:57:39;94088.50;;;18.37;58.16
14393;BME280;7281;42.678;23.372;2022-09-28T01:00:08;94093.13;;;18.40;58.21
14393;BME280;7281;42.678;23.372;2022-09-28T01:02:37;94077.50;;;18.67;57.30
14393;BME280;7281;42.678;23.372;2022-09-28T01:05:05;94087.53;;;18.82;56.59
14393;BME280;7281;42.678;23.372;2022-09-28T01:07:33;94086.44;;;18.83;56.12
14393;BME280;7281;42.678;23.372;2022-09-28T01:10:02;94083.59;;;18.88;56.25
14393;BME280;7281;42.678;23.372;2022-09-28T01:12:29;94082.34;;;18.86;56.13
14393;BME280;7281;42.678;23.372;2022-09-28T01:14:56;94082.28;;;18.94;55.84
14393;BME280;7281;42.678;23.372;2022-09-28T01:20:50;94083.88;;;19.07;55.53
14393;BME280;7281;42.678;23.372;2022-09-28T01:29:05;94090.72;;;18.55;57.54
14393;BME280;7281;42.678;23.372;2022-09-28T01:31:38;94088.56;;;18.90;56.41
14393;BME280;7281;42.678;23.372;2022-09-28T01:34:15;94093.34;;;18.76;56.44
14393;BME280;7281;42.678;23.372;2022-09-28T01:36:50;94105.81;;;18.43;56.91
14393;BME280;7281;42.678;23.372;2022-09-28T01:39:25;94114.69;;;17.80;59.73
14393;BME280;7281;42.678;23.372;2022-09-28T01:41:57;94113.53;;;17.98;60.12
14393;BME280;7281;42.678;23.372;2022-09-28T01:44:28;94107.56;;;17.72;60.84
14393;BME280;7281;42.678;23.372;2022-09-28T01:46:58;94102.28;;;18.01;59.96
14393;BME280;7281;42.678;23.372;2022-09-28T01:49:36;94101.09;;;18.48;58.89
14393;BME280;7281;42.678;23.372;2022-09-28T01:52:16;94117.00;;;18.19;59.03
14393;BME280;7281;42.678;23.372;2022-09-28T01:54:54;94104.09;;;18.09;59.64
14393;BME280;7281;42.678;23.372;2022-09-28T01:57:42;94096.06;;;18.26;59.33
14393;BME280;7281;42.678;23.372;2022-09-28T02:00:13;94105.31;;;18.41;58.55
14393;BME280;7281;42.678;23.372;2022-09-28T02:02:51;94106.94;;;18.33;59.17
14393;BME280;7281;42.678;23.372;2022-09-28T02:05:34;94099.06;;;18.45;58.75
14393;BME280;7281;42.678;23.372;2022-09-28T02:08:08;94117.81;;;18.40;58.11
14393;BME280;7281;42.678;23.372;2022-09-28T02:10:48;94141.59;;;17.99;59.65
14393;BME280;7281;42.678;23.372;2022-09-28T02:13:24;94129.56;;;18.01;59.78
14393;BME280;7281;42.678;23.372;2022-09-28T02:18:26;94138.06;;;17.23;61.99
14393;BME280;7281;42.678;23.372;2022-09-28T02:21:10;94107.94;;;17.91;59.95
14393;BME280;7281;42.678;23.372;2022-09-28T02:23:42;94100.06;;;18.03;59.33
14393;BME280;7281;42.678;23.372;2022-09-28T02:26:17;94116.81;;;18.24;58.71
14393;BME280;7281;42.678;23.372;2022-09-28T02:28:47;94118.41;;;17.33;60.94
14393;BME280;7281;42.678;23.372;2022-09-28T02:31:14;94118.84;;;17.43;61.52
14393;BME280;7281;42.678;23.372;2022-09-28T02:33:43;94128.50;;;17.94;59.46
14393;BME280;7281;42.678;23.372;2022-09-28T02:36:10;94127.25;;;17.45;60.76
14393;BME280;7281;42.678;23.372;2022-09-28T02:38:37;94113.41;;;17.57;60.64
14393;BME280;7281;42.678;23.372;2022-09-28T02:46:58;94119.47;;;17.95;59.56
14393;BME280;7281;42.678;23.372;2022-09-28T02:49:41;94125.47;;;17.75;59.74
14393;BME280;7281;42.678;23.372;2022-09-28T03:01:18;94121.59;;;18.10;58.49
14393;BME280;7281;42.678;23.372;2022-09-28T03:06:31;94125.03;;;18.02;58.05
14393;BME280;7281;42.678;23.372;2022-09-28T03:11:45;94119.28;;;18.00;57.81
14393;BME280;7281;42.678;23.372;2022-09-28T03:14:14;94136.28;;;17.99;58.20
14393;BME280;7281;42.678;23.372;2022-09-28T03:16:48;94141.28;;;17.92;58.65
14393;BME280;7281;42.678;23.372;2022-09-28T03:19:17;94140.69;;;17.95;58.21
14393;BME280;7281;42.678;23.372;2022-09-28T03:21:47;94144.34;;;18.11;57.40
14393;BME280;7281;42.678;23.372;2022-09-28T03:24:14;94143.28;;;17.66;58.78
14393;BME280;7281;42.678;23.372;2022-09-28T03:26:41;94142.59;;;17.86;58.37
14393;BME280;7281;42.678;23.372;2022-09-28T03:29:09;94152.47;;;18.06;57.52
14393;BME280;7281;42.678;23.372;2022-09-28T03:31:37;94164.75;;;18.10;57.78
14393;BME280;7281;42.678;23.372;2022-09-28T03:34:04;94148.66;;;17.86;58.63
14393;BME280;7281;42.678;23.372;2022-09-28T03:36:31;94152.47;;;18.06;57.85
14393;BME280;7281;42.678;23.372;2022-09-28T03:38:58;94167.47;;;18.02;57.73
14393;BME280;7281;42.678;23.372;2022-09-28T03:41:26;94162.03;;;17.98;57.43
14393;BME280;7281;42.678;23.372;2022-09-28T03:43:55;94161.13;;;17.86;58.05
14393;BME280;7281;42.678;23.372;2022-09-28T03:46:25;94164.84;;;17.39;59.42
14393;BME280;7281;42.678;23.372;2022-09-28T03:48:56;94160.16;;;17.99;58.01
14393;BME280;7281;42.678;23.372;2022-09-28T03:51:24;94160.16;;;17.36;59.21
14393;BME280;7281;42.678;23.372;2022-09-28T03:53:52;94138.00;;;17.66;58.91
14393;BME280;7281;42.678;23.372;2022-09-28T03:56:19;94158.94;;;17.88;58.82
14393;BME280;7281;42.678;23.372;2022-09-28T03:58:46;94164.56;;;17.14;60.32
14393;BME280;7281;42.678;23.372;2022-09-28T04:01:14;94153.50;;;17.04;61.77
14393;BME280;7281;42.678;23.372;2022-09-28T04:03:46;94169.50;;;17.59;60.55
14393;BME280;7281;42.678;23.372;2022-09-28T04:06:13;94158.75;;;17.55;59.50
14393;BME280;7281;42.678;23.372;2022-09-28T04:08:40;94165.47;;;17.27;61.97
14393;BME280;7281;42.678;23.372;2022-09-28T04:11:09;94171.97;;;17.47;60.16
14393;BME280;7281;42.678;23.372;2022-09-28T04:13:36;94152.22;;;17.53;60.44
14393;BME280;7281;42.678;23.372;2022-09-28T04:16:06;94144.22;;;17.70;59.88
14393;BME280;7281;42.678;23.372;2022-09-28T04:18:34;94157.34;;;17.41;60.45
14393;BME280;7281;42.678;23.372;2022-09-28T04:21:11;94152.25;;;17.82;59.85
14393;BME280;7281;42.678;23.372;2022-09-28T04:23:43;94145.81;;;17.54;60.71
14393;BME280;7281;42.678;23.372;2022-09-28T04:26:19;94146.13;;;17.44;60.50
14393;BME280;7281;42.678;23.372;2022-09-28T04:28:47;94154.66;;;17.66;59.98
14393;BME280;7281;42.678;23.372;2022-09-28T04:31:45;94165.06;;;17.80;59.81
14393;BME280;7281;42.678;23.372;2022-09-28T04:34:16;94156.72;;;17.98;58.84
14393;BME280;7281;42.678;23.372;2022-09-28T04:36:44;94155.75;;;18.03;59.23
14393;BME280;7281;42.678;23.372;2022-09-28T04:39:12;94154.75;;;18.16;58.82
14393;BME280;7281;42.678;23.372;2022-09-28T04:41:42;94158.31;;;18.20;58.42
14393;BME280;7281;42.678;23.372;2022-09-28T04:44:09;94148.03;;;18.18;57.92
14393;BME280;7281;42.678;23.372;2022-09-28T04:46:36;94139.84;;;17.65;60.31
14393;BME280;7281;42.678;23.372;2022-09-28T04:49:21;94158.50;;;17.86;59.77
14393;BME280;7281;42.678;23.372;2022-09-28T04:51:53;94155.78;;;17.94;58.83
14393;BME280;7281;42.678;23.372;2022-09-28T04:54:20;94149.63;;;18.11;59.03
14393;BME280;7281;42.678;23.372;2022-09-28T04:56:47;94149.94;;;18.47;57.91
14393;BME280;7281;42.678;23.372;2022-09-28T04:59:14;94153.28;;;18.27;58.49
14393;BME280;7281;42.678;23.372;2022-09-28T05:01:42;94153.69;;;18.08;58.74
14393;BME280;7281;42.678;23.372;2022-09-28T05:04:42;94140.03;;;17.98;60.04
14393;BME280;7281;42.678;23.372;2022-09-28T05:07:27;94148.72;;;18.07;61.05
14393;BME280;7281;42.678;23.372;2022-09-28T05:09:55;94155.22;;;18.18;60.17
14393;BME280;7281;42.678;23.372;2022-09-28T05:12:22;94148.56;;;18.41;58.91
14393;BME280;7281;42.678;23.372;2022-09-28T05:14:49;94146.25;;;18.02;60.93
14393;BME280;7281;42.678;23.372;2022-09-28T05:17:17;94156.91;;;17.85;61.32
14393;BME280;7281;42.678;23.372;2022-09-28T05:20:07;94146.75;;;17.95;61.08
14393;BME280;7281;42.678;23.372;2022-09-28T05:22:34;94162.22;;;17.85;61.69
14393;BME280;7281;42.678;23.372;2022-09-28T05:25:03;94172.38;;;18.12;61.27
14393;BME280;7281;42.678;23.372;2022-09-28T05:27:40;94175.06;;;18.41;60.11
14393;BME280;7281;42.678;23.372;2022-09-28T05:30:22;94172.81;;;18.81;58.55
14393;BME280;7281;42.678;23.372;2022-09-28T05:33:07;94178.28;;;18.55;59.11
14393;BME280;7281;42.678;23.372;2022-09-28T05:35:44;94172.09;;;18.72;58.61
14393;BME280;7281;42.678;23.372;2022-09-28T05:38:15;94177.00;;;18.82;58.08
14393;BME280;7281;42.678;23.372;2022-09-28T05:40:42;94170.94;;;18.52;59.10
14393;BME280;7281;42.678;23.372;2022-09-28T05:43:09;94179.94;;;18.68;58.61
14393;BME280;7281;42.678;23.372;2022-09-28T05:45:36;94169.66;;;18.00;61.50
14393;BME280;7281;42.678;23.372;2022-09-28T05:48:03;94174.06;;;18.54;59.55
14393;BME280;7281;42.678;23.372;2022-09-28T05:50:30;94177.19;;;18.56;59.70
14393;BME280;7281;42.678;23.372;2022-09-28T05:53:05;94174.38;;;18.53;59.75
14393;BME280;7281;42.678;23.372;2022-09-28T05:55:36;94178.56;;;18.62;59.16
14393;BME280;7281;42.678;23.372;2022-09-28T05:58:05;94165.16;;;19.00;58.32
14393;BME280;7281;42.678;23.372;2022-09-28T06:00:34;94181.69;;;18.27;60.28
14393;BME280;7281;42.678;23.372;2022-09-28T06:03:06;94172.16;;;18.84;58.43
14393;BME280;7281;42.678;23.372;2022-09-28T06:05:36;94168.13;;;18.98;58.23
14393;BME280;7281;42.678;23.372;2022-09-28T06:08:07;94177.97;;;18.77;59.10
14393;BME280;7281;42.678;23.372;2022-09-28T06:10:37;94177.59;;;18.87;59.00
14393;BME280;7281;42.678;23.372;2022-09-28T06:13:05;94183.81;;;18.91;58.82
14393;BME280;7281;42.678;23.372;2022-09-28T06:15:34;94185.66;;;18.70;59.63
14393;BME280;7281;42.678;23.372;2022-09-28T06:20:37;94197.22;;;19.15;59.33
14393;BME280;7281;42.678;23.372;2022-09-28T06:23:12;94192.84;;;19.52;57.69
14393;BME280;7281;42.678;23.372;2022-09-28T06:25:39;94190.91;;;19.41;58.76
14393;BME280;7281;42.678;23.372;2022-09-28T06:28:09;94195.06;;;19.50;58.77
14393;BME280;7281;42.678;23.372;2022-09-28T06:30:39;94192.06;;;19.10;58.61
14393;BME280;7281;42.678;23.372;2022-09-28T06:33:11;94197.78;;;19.00;59.28
14393;BME280;7281;42.678;23.372;2022-09-28T06:35:39;94208.22;;;18.85;59.43
14393;BME280;7281;42.678;23.372;2022-09-28T06:38:06;94201.81;;;18.28;60.47
14393;BME280;7281;42.678;23.372;2022-09-28T06:40:33;94202.88;;;18.35;60.65
14393;BME280;7281;42.678;23.372;2022-09-28T06:43:06;94190.41;;;18.85;58.90
14393;BME280;7281;42.678;23.372;2022-09-28T06:45:56;94191.88;;;18.74;58.66
14393;BME280;7281;42.678;23.372;2022-09-28T06:48:29;94200.75;;;18.78;58.58
14393;BME280;7281;42.678;23.372;2022-09-28T06:51:00;94202.44;;;19.03;57.94
14393;BME280;7281;42.678;23.372;2022-09-28T06:53:36;94210.13;;;18.76;59.59
14393;BME280;7281;42.678;23.372;2022-09-28T06:56:23;94209.06;;;18.97;59.38
14393;BME280;7281;42.678;23.372;2022-09-28T06:58:55;94205.97;;;18.95;59.20
14393;BME280;7281;42.678;23.372;2022-09-28T07:01:23;94211.22;;;18.54;59.19
14393;BME280;7281;42.678;23.372;2022-09-28T07:04:16;94192.53;;;19.12;57.86
14393;BME280;7281;42.678;23.372;2022-09-28T07:06:52;94192.34;;;19.38;56.30
14393;BME280;7281;42.678;23.372;2022-09-28T07:09:40;94209.59;;;19.32;57.57
14393;BME280;7281;42.678;23.372;2022-09-28T07:12:34;94214.88;;;19.53;57.92
14393;BME280;7281;42.678;23.372;2022-09-28T07:15:10;94220.34;;;19.36;59.53
14393;BME280;7281;42.678;23.372;2022-09-28T07:17:37;94211.34;;;19.61;57.71
14393;BME280;7281;42.678;23.372;2022-09-28T07:20:23;94213.31;;;19.52;59.22
14393;BME280;7281;42.678;23.372;2022-09-28T07:22:54;94210.59;;;20.05;56.95
14393;BME280;7281;42.678;23.372;2022-09-28T07:25:23;94209.28;;;20.35;55.93
14393;BME280;7281;42.678;23.372;2022-09-28T07:28:05;94207.69;;;20.10;56.57
14393;BME280;7281;42.678;23.372;2022-09-28T07:31:11;94207.53;;;20.27;57.55
14393;BME280;7281;42.678;23.372;2022-09-28T07:33:59;94214.59;;;20.71;55.74
14393;BME280;7281;42.678;23.372;2022-09-28T07:36:34;94211.63;;;20.37;57.38
14393;BME280;7281;42.678;23.372;2022-09-28T07:39:02;94210.84;;;20.48;56.26
14393;BME280;7281;42.678;23.372;2022-09-28T07:41:29;94213.72;;;20.79;55.33
14393;BME280;7281;42.678;23.372;2022-09-28T07:44:02;94211.91;;;20.95;56.37
14393;BME280;7281;42.678;23.372;2022-09-28T07:46:34;94214.38;;;20.28;58.75
14393;BME280;7281;42.678;23.372;2022-09-28T07:49:13;94212.78;;;20.03;59.96
14393;BME280;7281;42.678;23.372;2022-09-28T07:52:07;94210.25;;;20.91;57.89
14393;BME280;7281;42.678;23.372;2022-09-28T07:54:39;94202.25;;;21.03;58.00
14393;BME280;7281;42.678;23.372;2022-09-28T07:57:22;94215.81;;;20.74;60.25
14393;BME280;7281;42.678;23.372;2022-09-28T08:00:06;94212.44;;;21.53;58.17
14393;BME280;7281;42.678;23.372;2022-09-28T08:02:44;94214.50;;;21.87;56.04
14393;BME280;7281;42.678;23.372;2022-09-28T08:05:15;94212.44;;;21.68;55.33
14393;BME280;7281;42.678;23.372;2022-09-28T08:07:43;94213.28;;;21.29;56.69
14393;BME280;7281;42.678;23.372;2022-09-28T08:10:11;94219.34;;;21.42;55.97
14393;BME280;7281;42.678;23.372;2022-09-28T08:13:13;94224.00;;;22.00;51.64
14393;BME280;7281;42.678;23.372;2022-09-28T08:16:03;94212.56;;;22.15;52.06
14393;BME280;7281;42.678;23.372;2022-09-28T08:18:38;94200.09;;;21.76;53.44
14393;BME280;7281;42.678;23.372;2022-09-28T08:21:06;94211.53;;;22.04;52.26
14393;BME280;7281;42.678;23.372;2022-09-28T08:23:51;94211.78;;;21.44;53.66
14393;BME280;7281;42.678;23.372;2022-09-28T08:26:18;94205.34;;;22.31;52.58
14393;BME280;7281;42.678;23.372;2022-09-28T08:28:45;94209.91;;;22.15;52.75
14393;BME280;7281;42.678;23.372;2022-09-28T08:31:32;94209.88;;;21.84;50.52
14393;BME280;7281;42.678;23.372;2022-09-28T08:34:15;94218.16;;;22.26;51.33
14393;BME280;7281;42.678;23.372;2022-09-28T08:37:02;94223.03;;;22.39;51.62
14393;BME280;7281;42.678;23.372;2022-09-28T08:39:49;94197.50;;;22.38;50.67
14393;BME280;7281;42.678;23.372;2022-09-28T08:42:55;94217.47;;;22.13;51.06
14393;BME280;7281;42.678;23.372;2022-09-28T08:45:43;94209.53;;;22.01;48.70
14393;BME280;7281;42.678;23.372;2022-09-28T08:48:28;94197.31;;;22.62;47.61
14393;BME280;7281;42.678;23.372;2022-09-28T08:52:17;94206.81;;;22.94;48.11
14393;BME280;7281;42.678;23.372;2022-09-28T08:55:31;94200.16;;;22.69;50.14
14393;BME280;7281;42.678;23.372;2022-09-28T08:58:14;94192.63;;;23.29;48.53
14393;BME280;7281;42.678;23.372;2022-09-28T09:00:51;94185.47;;;23.71;47.57
14393;BME280;7281;42.678;23.372;2022-09-28T09:03:33;94177.50;;;23.74;48.62
14393;BME280;7281;42.678;23.372;2022-09-28T09:10:05;94178.22;;;24.62;45.46
14393;BME280;7281;42.678;23.372;2022-09-28T09:21:19;94184.97;;;24.52;45.02
14393;BME280;7281;42.678;23.372;2022-09-28T09:23:56;94180.19;;;25.47;43.22
14393;BME280;7281;42.678;23.372;2022-09-28T09:26:37;94166.44;;;25.52;43.48
14393;BME280;7281;42.678;23.372;2022-09-28T09:38:09;94173.25;;;26.16;40.40
14393;BME280;7281;42.678;23.372;2022-09-28T09:45:08;94157.50;;;26.14;40.79
14393;BME280;7281;42.678;23.372;2022-09-28T09:48:08;94162.16;;;25.84;40.80
14393;BME280;7281;42.678;23.372;2022-09-28T09:53:54;94155.78;;;25.95;40.99
14393;BME280;7281;42.678;23.372;2022-09-28T09:56:31;94150.81;;;26.41;40.11
14393;BME280;7281;42.678;23.372;2022-09-28T09:59:25;94144.03;;;26.07;38.76
14393;BME280;7281;42.678;23.372;2022-09-28T10:02:29;94148.59;;;26.50;37.54
14393;BME280;7281;42.678;23.372;2022-09-28T10:05:17;94148.13;;;26.41;39.15
14393;BME280;7281;42.678;23.372;2022-09-28T10:08:03;94151.00;;;26.66;39.09
14393;BME280;7281;42.678;23.372;2022-09-28T10:13:18;94146.25;;;26.01;38.74
14393;BME280;7281;42.678;23.372;2022-09-28T10:15:46;94143.88;;;26.87;37.76
14393;BME280;7281;42.678;23.372;2022-09-28T10:18:20;94148.41;;;26.76;37.61
14393;BME280;7281;42.678;23.372;2022-09-28T10:21:06;94144.53;;;26.70;39.02
14393;BME280;7281;42.678;23.372;2022-09-28T10:23:49;94146.28;;;27.14;38.87
14393;BME280;7281;42.678;23.372;2022-09-28T10:26:28;94139.41;;;27.20;36.31
14393;BME280;7281;42.678;23.372;2022-09-28T10:29:00;94132.25;;;26.69;37.58
14393;BME280;7281;42.678;23.372;2022-09-28T10:31:39;94133.94;;;26.98;36.08
14393;BME280;7281;42.678;23.372;2022-09-28T10:34:13;94124.75;;;27.10;35.23
14393;BME280;7281;42.678;23.372;2022-09-28T10:39:27;94116.47;;;27.47;36.11
14393;BME280;7281;42.678;23.372;2022-09-28T10:41:58;94110.31;;;27.46;35.50
14393;BME280;7281;42.678;23.372;2022-09-28T10:44:30;94111.13;;;27.54;33.82
14393;BME280;7281;42.678;23.372;2022-09-28T10:47:05;94108.00;;;27.38;35.06
14393;BME280;7281;42.678;23.372;2022-09-28T10:49:44;94108.63;;;27.07;35.81
14393;BME280;7281;42.678;23.372;2022-09-28T10:52:38;94098.09;;;27.84;34.78
14393;BME280;7281;42.678;23.372;2022-09-28T10:57:47;94097.63;;;27.47;33.47
14393;BME280;7281;42.678;23.372;2022-09-28T11:00:41;94098.81;;;27.46;33.01
14393;BME280;7281;42.678;23.372;2022-09-28T11:03:27;94090.75;;;27.63;34.22
14393;BME280;7281;42.678;23.372;2022-09-28T11:06:04;94084.25;;;27.89;33.84
14393;BME280;7281;42.678;23.372;2022-09-28T11:08:40;94082.00;;;28.26;33.99
14393;BME280;7281;42.678;23.372;2022-09-28T11:11:14;94078.88;;;28.66;32.78
14393;BME280;7281;42.678;23.372;2022-09-28T11:13:53;94072.75;;;28.45;31.47
14393;BME280;7281;42.678;23.372;2022-09-28T11:16:30;94065.84;;;28.19;32.53
14393;BME280;7281;42.678;23.372;2022-09-28T11:19:05;94063.38;;;28.91;32.49
14393;BME280;7281;42.678;23.372;2022-09-28T11:21:51;94061.69;;;29.33;31.63
14393;BME280;7281;42.678;23.372;2022-09-28T11:24:22;94059.91;;;28.94;32.13
14393;BME280;7281;42.678;23.372;2022-09-28T11:26:56;94054.16;;;28.89;31.51
14393;BME280;7281;42.678;23.372;2022-09-28T11:29:37;94048.03;;;28.71;30.82
14393;BME280;7281;42.678;23.372;2022-09-28T11:32:19;94051.44;;;28.89;31.04
14393;BME280;7281;42.678;23.372;2022-09-28T11:35:19;94051.06;;;28.90;34.16
14393;BME280;7281;42.678;23.372;2022-09-28T11:41:46;94040.25;;;28.90;32.36
14393;BME280;7281;42.678;23.372;2022-09-28T11:47:24;94046.44;;;29.74;31.57
14393;BME280;7281;42.678;23.372;2022-09-28T11:53:02;94047.91;;;29.17;29.57
14393;BME280;7281;42.678;23.372;2022-09-28T11:55:41;94053.00;;;30.21;28.05
14393;BME280;7281;42.678;23.372;2022-09-28T11:58:27;94046.31;;;30.39;28.64
14393;BME280;7281;42.678;23.372;2022-09-28T12:04:24;94035.38;;;30.50;29.40
14393;BME280;7281;42.678;23.372;2022-09-28T12:09:53;94025.72;;;30.52;29.33
14393;BME280;7281;42.678;23.372;2022-09-28T12:15:00;94026.47;;;30.12;28.81
14393;BME280;7281;42.678;23.372;2022-09-28T12:17:39;94017.66;;;29.46;29.64
14393;BME280;7281;42.678;23.372;2022-09-28T12:20:23;94025.94;;;29.80;29.72
14393;BME280;7281;42.678;23.372;2022-09-28T12:25:22;94024.03;;;29.05;29.45
14393;BME280;7281;42.678;23.372;2022-09-28T12:30:20;94019.63;;;29.39;30.03
14393;BME280;7281;42.678;23.372;2022-09-28T12:33:03;94038.03;;;29.58;28.94
14393;BME280;7281;42.678;23.372;2022-09-28T12:35:51;94035.25;;;28.92;27.62
14393;BME280;7281;42.678;23.372;2022-09-28T12:38:37;94034.75;;;29.26;28.73
14393;BME280;7281;42.678;23.372;2022-09-28T12:44:39;94022.56;;;28.89;33.93
14393;BME280;7281;42.678;23.372;2022-09-28T12:50:34;94028.44;;;28.49;29.43
14393;BME280;7281;42.678;23.372;2022-09-28T12:55:52;94029.94;;;28.71;29.79
14393;BME280;7281;42.678;23.372;2022-09-28T13:07:10;94030.94;;;29.13;28.90
14393;BME280;7281;42.678;23.372;2022-09-28T13:09:22;94030.91;;;29.20;29.80
14393;BME280;7281;42.678;23.372;2022-09-28T13:17:13;94035.00;;;28.55;30.94
14393;BME280;7281;42.678;23.372;2022-09-28T13:19:56;94023.84;;;28.39;28.39
14393;BME280;7281;42.678;23.372;2022-09-28T13:25:14;94028.13;;;28.05;28.68
14393;BME280;7281;42.678;23.372;2022-09-28T13:27:53;94023.41;;;28.65;28.55
14393;BME280;7281;42.678;23.372;2022-09-28T13:30:22;94020.03;;;27.77;28.81
14393;BME280;7281;42.678;23.372;2022-09-28T13:32:49;94035.78;;;27.78;28.78
14393;BME280;7281;42.678;23.372;2022-09-28T13:35:17;94039.94;;;27.34;29.61
14393;BME280;7281;42.678;23.372;2022-09-28T13:43:53;94020.81;;;29.34;28.11
14393;BME280;7281;42.678;23.372;2022-09-28T13:52:05;94003.69;;;29.58;25.51
14393;BME280;7281;42.678;23.372;2022-09-28T13:57:51;94021.19;;;29.98;25.64
14393;BME280;7281;42.678;23.372;2022-09-28T14:03:21;94007.38;;;32.76;23.96
14393;BME280;7281;42.678;23.372;2022-09-28T14:16:41;94016.00;;;30.55;25.94
14393;BME280;7281;42.678;23.372;2022-09-28T14:19:23;94004.75;;;29.10;26.78
14393;BME280;7281;42.678;23.372;2022-09-28T14:22:08;94006.47;;;30.03;25.58
14393;BME280;7281;42.678;23.372;2022-09-28T14:25:04;94010.75;;;30.41;25.33
14393;BME280;7281;42.678;23.372;2022-09-28T14:30:46;93999.09;;;30.51;26.88
14393;BME280;7281;42.678;23.372;2022-09-28T14:33:25;93996.44;;;30.03;26.66
14393;BME280;7281;42.678;23.372;2022-09-28T14:38:46;94008.69;;;30.11;26.16
14393;BME280;7281;42.678;23.372;2022-09-28T14:41:37;94010.97;;;29.72;26.63
14393;BME280;7281;42.678;23.372;2022-09-28T14:44:09;94005.84;;;29.23;26.36
14393;BME280;7281;42.678;23.372;2022-09-28T14:51:56;93992.06;;;28.99;26.91
14393;BME280;7281;42.678;23.372;2022-09-28T14:54:40;93998.09;;;27.50;27.18
14393;BME280;7281;42.678;23.372;2022-09-28T14:57:20;94006.50;;;28.47;26.61
14393;BME280;7281;42.678;23.372;2022-09-28T14:59:47;93996.63;;;29.20;26.61
14393;BME280;7281;42.678;23.372;2022-09-28T15:02:31;94001.66;;;29.15;27.13
14393;BME280;7281;42.678;23.372;2022-09-28T15:05:34;94010.91;;;29.17;27.22
14393;BME280;7281;42.678;23.372;2022-09-28T15:08:04;94002.44;;;29.12;27.37
14393;BME280;7281;42.678;23.372;2022-09-28T15:10:36;94010.59;;;28.90;26.84
14393;BME280;7281;42.678;23.372;2022-09-28T15:13:16;94006.13;;;28.52;27.97
14393;BME280;7281;42.678;23.372;2022-09-28T15:15:47;94012.22;;;28.70;28.05
14393;BME280;7281;42.678;23.372;2022-09-28T15:21:16;94027.22;;;28.78;27.37
14393;BME280;7281;42.678;23.372;2022-09-28T15:23:44;94029.56;;;28.73;27.31
14393;BME280;7281;42.678;23.372;2022-09-28T15:26:31;94033.44;;;28.51;27.30
14393;BME280;7281;42.678;23.372;2022-09-28T15:28:59;94037.72;;;27.78;28.01
14393;BME280;7281;42.678;23.372;2022-09-28T15:31:32;94033.50;;;27.98;28.25
14393;BME280;7281;42.678;23.372;2022-09-28T15:34:00;94031.91;;;28.60;28.12
14393;BME280;7281;42.678;23.372;2022-09-28T15:36:45;94029.53;;;28.76;27.79
14393;BME280;7281;42.678;23.372;2022-09-28T15:41:43;94028.84;;;28.44;27.94
14393;BME280;7281;42.678;23.372;2022-09-28T15:46:42;94041.22;;;28.10;28.36
14393;BME280;7281;42.678;23.372;2022-09-28T15:49:34;94045.00;;;28.58;27.78
14393;BME280;7281;42.678;23.372;2022-09-28T15:52:04;94035.69;;;28.80;27.65
14393;BME280;7281;42.678;23.372;2022-09-28T15:54:37;94045.78;;;28.41;27.93
14393;BME280;7281;42.678;23.372;2022-09-28T15:57:28;94045.84;;;28.06;28.28
14393;BME280;7281;42.678;23.372;2022-09-28T15:59:56;94050.41;;;28.23;28.17
14393;BME280;7281;42.678;23.372;2022-09-28T16:02:25;94039.66;;;27.88;28.75
14393;BME280;7281;42.678;23.372;2022-09-28T16:04:57;94040.44;;;28.06;28.88
14393;BME280;7281;42.678;23.372;2022-09-28T16:07:36;94040.41;;;27.64;28.96
14393;BME280;7281;42.678;23.372;2022-09-28T16:12:48;94044.59;;;27.37;29.90
14393;BME280;7281;42.678;23.372;2022-09-28T16:17:56;94058.66;;;26.95;30.58
14393;BME280;7281;42.678;23.372;2022-09-28T16:20:29;94059.03;;;26.29;31.50
14393;BME280;7281;42.678;23.372;2022-09-28T16:22:59;94056.25;;;26.76;31.07
14393;BME280;7281;42.678;23.372;2022-09-28T16:25:33;94050.88;;;26.79;30.76
14393;BME280;7281;42.678;23.372;2022-09-28T16:28:04;94062.94;;;26.38;31.26
14393;BME280;7281;42.678;23.372;2022-09-28T16:30:33;94060.28;;;27.28;30.54
14393;BME280;7281;42.678;23.372;2022-09-28T16:33:03;94054.78;;;26.92;30.75
14393;BME280;7281;42.678;23.372;2022-09-28T16:38:02;94067.53;;;26.38;31.37
14393;BME280;7281;42.678;23.372;2022-09-28T16:40:30;94062.81;;;26.85;31.06
14393;BME280;7281;42.678;23.372;2022-09-28T16:43:00;94057.91;;;27.09;30.60
14393;BME280;7281;42.678;23.372;2022-09-28T16:45:29;94059.84;;;26.36;31.09